< < Back
Terminal Aerodrome Forecast


Current Version              Previous Versions:   1  2  3  4  5  6  7  8  9  

Terminal Aerodrome Forecast

225
FTUS44 KHUN 211128
TAFHSV
TAF
KHSV 211128Z 2112/2212 08005KT P6SM SCT030 SCT250
     FM211500 13005KT P6SM SCT030 OVC100
     FM212000 12003KT P6SM OVC030
     FM220600 10003KT 5SM -RA BR FEW007 OVC015=

Latest METAR

624
SAUS80 KWBC 211500 RRA
MTRHSV
METAR KHSV 211453Z 04003KT 7SM FEW012 BKN034 03/M01 A3020 RMK AO2 SLP229
T00331006 50000


USA.gov is the U.S. government's official web portal to all federal, state and local government web resources and services.